sensor_id;sensor_type;location;lat;lon;timestamp;pressure;altitude;pressure_sealevel;temperature;humidity
80509;BME280;69838;52.602;13.434;2024-03-06T00:00:09;101371.16;;;0.33;100.00
80509;BME280;69838;52.602;13.434;2024-03-06T00:00:56;101377.34;;;0.28;100.00
80509;BME280;69838;52.602;13.434;2024-03-06T00:01:41;101379.09;;;0.23;100.00
80509;BME280;69838;52.602;13.434;2024-03-06T00:02:27;101380.84;;;0.14;100.00
80509;BME280;69838;52.602;13.434;2024-03-06T00:03:13;101386.16;;;0.17;100.00
80509;BME280;69838;52.602;13.434;2024-03-06T00:03:59;101386.13;;;0.08;100.00
80509;BME280;69838;52.602;13.434;2024-03-06T00:04:44;101380.81;;;0.08;100.00
80509;BME280;69838;52.602;13.434;2024-03-06T00:05:31;101384.38;;;0.12;100.00
80509;BME280;69838;52.602;13.434;2024-03-06T00:06:16;101382.53;;;0.03;100.00
80509;BME280;69838;52.602;13.434;2024-03-06T00:07:03;101384.28;;;-0.02;100.00
80509;BME280;69838;52.602;13.434;2024-03-06T00:07:48;101377.16;;;-0.09;100.00
80509;BME280;69838;52.602;13.434;2024-03-06T00:08:34;101384.25;;;-0.11;100.00
80509;BME280;69838;52.602;13.434;2024-03-06T00:09:20;101387.75;;;-0.18;100.00
80509;BME280;69838;52.602;13.434;2024-03-06T00:10:06;101389.47;;;-0.24;100.00
80509;BME280;69838;52.602;13.434;2024-03-06T00:10:52;101393.88;;;-0.26;100.00
80509;BME280;69838;52.602;13.434;2024-03-06T00:11:38;101386.81;;;-0.24;100.00
80509;BME280;69838;52.602;13.434;2024-03-06T00:12:25;101388.56;;;-0.32;100.00
80509;BME280;69838;52.602;13.434;2024-03-06T00:13:10;101393.81;;;-0.36;100.00
80509;BME280;69838;52.602;13.434;2024-03-06T00:13:58;101394.66;;;-0.42;100.00
80509;BME280;69838;52.602;13.434;2024-03-06T00:14:43;101391.13;;;-0.44;100.00
80509;BME280;69838;52.602;13.434;2024-03-06T00:15:29;101388.41;;;-0.50;100.00
80509;BME280;69838;52.602;13.434;2024-03-06T00:16:16;101396.38;;;-0.53;100.00
80509;BME280;69838;52.602;13.434;2024-03-06T00:17:01;101385.69;;;-0.60;100.00
80509;BME280;69838;52.602;13.434;2024-03-06T00:17:49;101386.56;;;-0.64;100.00
80509;BME280;69838;52.602;13.434;2024-03-06T00:18:35;101392.81;;;-0.55;100.00
80509;BME280;69838;52.602;13.434;2024-03-06T00:19:21;101391.00;;;-0.63;100.00
80509;BME280;69838;52.602;13.434;2024-03-06T00:20:07;101396.28;;;-0.66;100.00
80509;BME280;69838;52.602;13.434;2024-03-06T00:20:54;101391.81;;;-0.67;100.00
80509;BME280;69838;52.602;13.434;2024-03-06T00:21:40;101399.75;;;-0.71;100.00
80509;BME280;69838;52.602;13.434;2024-03-06T00:22:26;101397.97;;;-0.77;100.00
80509;BME280;69838;52.602;13.434;2024-03-06T00:23:11;101391.72;;;-0.82;100.00
80509;BME280;69838;52.602;13.434;2024-03-06T00:23:58;101400.56;;;-0.82;100.00
80509;BME280;69838;52.602;13.434;2024-03-06T00:24:43;101393.47;;;-0.83;100.00
80509;BME280;69838;52.602;13.434;2024-03-06T00:25:29;101406.66;;;-0.90;100.00
80509;BME280;69838;52.602;13.434;2024-03-06T00:26:15;101410.16;;;-0.96;100.00
80509;BME280;69838;52.602;13.434;2024-03-06T00:27:00;101401.28;;;-1.00;100.00
80509;BME280;69838;52.602;13.434;2024-03-06T00:27:46;101404.78;;;-1.04;100.00
80509;BME280;69838;52.602;13.434;2024-03-06T00:28:33;101400.31;;;-1.08;100.00
80509;BME280;69838;52.602;13.434;2024-03-06T00:29:20;101405.66;;;-1.03;100.00
80509;BME280;69838;52.602;13.434;2024-03-06T00:30:06;101410.09;;;-1.04;100.00
80509;BME280;69838;52.602;13.434;2024-03-06T00:30:53;101411.78;;;-1.09;100.00
80509;BME280;69838;52.602;13.434;2024-03-06T00:31:42;101415.31;;;-1.10;100.00
80509;BME280;69838;52.602;13.434;2024-03-06T00:32:28;101411.72;;;-1.18;100.00
80509;BME280;69838;52.602;13.434;2024-03-06T00:33:14;101417.06;;;-1.12;100.00
80509;BME280;69838;52.602;13.434;2024-03-06T00:34:00;101413.47;;;-1.17;100.00
80509;BME280;69838;52.602;13.434;2024-03-06T00:34:45;101417.03;;;-1.15;100.00
80509;BME280;69838;52.602;13.434;2024-03-06T00:35:32;101414.31;;;-1.23;100.00
80509;BME280;69838;52.602;13.434;2024-03-06T00:36:17;101408.06;;;-1.26;100.00
80509;BME280;69838;52.602;13.434;2024-03-06T00:37:03;101422.19;;;-1.30;100.00
80509;BME280;69838;52.602;13.434;2024-03-06T00:37:52;101423.03;;;-1.31;100.00
80509;BME280;69838;52.602;13.434;2024-03-06T00:38:38;101416.91;;;-1.27;100.00
80509;BME280;69838;52.602;13.434;2024-03-06T00:39:23;101417.69;;;-1.36;100.00
80509;BME280;69838;52.602;13.434;2024-03-06T00:40:11;101423.84;;;-1.37;100.00
80509;BME280;69838;52.602;13.434;2024-03-06T00:40:57;101429.22;;;-1.32;100.00
80509;BME280;69838;52.602;13.434;2024-03-06T00:41:42;101425.66;;;-1.35;100.00
80509;BME280;69838;52.602;13.434;2024-03-06T00:42:29;101432.69;;;-1.37;100.00
80509;BME280;69838;52.602;13.434;2024-03-06T00:43:15;101429.22;;;-1.29;100.00
80509;BME280;69838;52.602;13.434;2024-03-06T00:44:00;101430.16;;;-1.26;100.00
80509;BME280;69838;52.602;13.434;2024-03-06T00:44:48;101431.13;;;-1.19;100.00
80509;BME280;69838;52.602;13.434;2024-03-06T00:45:33;101425.09;;;-1.03;100.00
80509;BME280;69838;52.602;13.434;2024-03-06T00:46:19;101429.66;;;-0.89;100.00
80509;BME280;69838;52.602;13.434;2024-03-06T00:47:05;101429.69;;;-0.83;100.00
80509;BME280;69838;52.602;13.434;2024-03-06T00:47:50;101438.56;;;-0.84;100.00
80509;BME280;69838;52.602;13.434;2024-03-06T00:48:36;101435.88;;;-0.86;100.00
80509;BME280;69838;52.602;13.434;2024-03-06T00:49:24;101435.78;;;-0.93;100.00
80509;BME280;69838;52.602;13.434;2024-03-06T00:50:09;101432.22;;;-1.00;100.00
80509;BME280;69838;52.602;13.434;2024-03-06T00:50:54;101435.69;;;-1.06;100.00
80509;BME280;69838;52.602;13.434;2024-03-06T00:51:41;101437.38;;;-1.12;100.00
80509;BME280;69838;52.602;13.434;2024-03-06T00:52:26;101435.59;;;-1.12;100.00
80509;BME280;69838;52.602;13.434;2024-03-06T00:53:12;101442.59;;;-1.19;100.00
80509;BME280;69838;52.602;13.434;2024-03-06T00:53:58;101433.75;;;-1.21;100.00
80509;BME280;69838;52.602;13.434;2024-03-06T00:54:44;101433.72;;;-1.25;100.00
80509;BME280;69838;52.602;13.434;2024-03-06T00:55:29;101437.19;;;-1.31;100.00
80509;BME280;69838;52.602;13.434;2024-03-06T00:56:16;101446.81;;;-1.38;100.00
80509;BME280;69838;52.602;13.434;2024-03-06T00:57:01;101443.25;;;-1.40;100.00
80509;BME280;69838;52.602;13.434;2024-03-06T00:57:47;101445.84;;;-1.44;100.00
80509;BME280;69838;52.602;13.434;2024-03-06T00:58:33;101444.97;;;-1.45;100.00
80509;BME280;69838;52.602;13.434;2024-03-06T00:59:18;101446.59;;;-1.55;100.00
80509;BME280;69838;52.602;13.434;2024-03-06T01:00:08;101445.72;;;-1.55;100.00
80509;BME280;69838;52.602;13.434;2024-03-06T01:00:55;101442.25;;;-1.52;100.00
80509;BME280;69838;52.602;13.434;2024-03-06T01:01:42;101447.50;;;-1.56;100.00
80509;BME280;69838;52.602;13.434;2024-03-06T01:02:29;101443.09;;;-1.54;100.00
80509;BME280;69838;52.602;13.434;2024-03-06T01:03:14;101427.16;;;-1.57;100.00
80509;BME280;69838;52.602;13.434;2024-03-06T01:04:00;101435.91;;;-1.62;100.00
80509;BME280;69838;52.602;13.434;2024-03-06T01:04:47;101446.44;;;-1.68;100.00
80509;BME280;69838;52.602;13.434;2024-03-06T01:05:32;101449.91;;;-1.74;100.00
80509;BME280;69838;52.602;13.434;2024-03-06T01:06:18;101442.75;;;-1.80;100.00
80509;BME280;69838;52.602;13.434;2024-03-06T01:07:05;101441.78;;;-1.85;100.00
80509;BME280;69838;52.602;13.434;2024-03-06T01:07:50;101441.81;;;-1.86;100.00
80509;BME280;69838;52.602;13.434;2024-03-06T01:08:36;101439.97;;;-1.89;100.00
80509;BME280;69838;52.602;13.434;2024-03-06T01:09:22;101445.25;;;-1.90;100.00
80509;BME280;69838;52.602;13.434;2024-03-06T01:10:09;101440.81;;;-1.93;100.00
80509;BME280;69838;52.602;13.434;2024-03-06T01:10:54;101442.56;;;-1.95;100.00
80509;BME280;69838;52.602;13.434;2024-03-06T01:11:40;101438.97;;;-2.00;100.00
80509;BME280;69838;52.602;13.434;2024-03-06T01:12:26;101447.84;;;-1.95;100.00
80509;BME280;69838;52.602;13.434;2024-03-06T01:13:13;101446.91;;;-1.99;100.00
80509;BME280;69838;52.602;13.434;2024-03-06T01:13:58;101449.53;;;-2.00;100.00
80509;BME280;69838;52.602;13.434;2024-03-06T01:14:44;101446.06;;;-1.96;100.00
80509;BME280;69838;52.602;13.434;2024-03-06T01:15:32;101447.88;;;-1.92;100.00
80509;BME280;69838;52.602;13.434;2024-03-06T01:16:18;101445.19;;;-1.97;100.00
80509;BME280;69838;52.602;13.434;2024-03-06T01:17:03;101451.28;;;-2.02;100.00
80509;BME280;69838;52.602;13.434;2024-03-06T01:17:50;101448.53;;;-2.08;100.00
80509;BME280;69838;52.602;13.434;2024-03-06T01:18:36;101453.81;;;-2.12;100.00
80509;BME280;69838;52.602;13.434;2024-03-06T01:19:21;101451.09;;;-2.15;100.00
80509;BME280;69838;52.602;13.434;2024-03-06T01:20:08;101447.53;;;-2.17;100.00
80509;BME280;69838;52.602;13.434;2024-03-06T01:20:54;101445.69;;;-2.21;100.00
80509;BME280;69838;52.602;13.434;2024-03-06T01:21:41;101450.09;;;-2.23;100.00
80509;BME280;69838;52.602;13.434;2024-03-06T01:22:27;101452.97;;;-2.07;100.00
80509;BME280;69838;52.602;13.434;2024-03-06T01:23:12;101451.16;;;-2.10;100.00
80509;BME280;69838;52.602;13.434;2024-03-06T01:23:58;101451.13;;;-2.13;100.00
80509;BME280;69838;52.602;13.434;2024-03-06T01:24:44;101443.06;;;-2.22;100.00
80509;BME280;69838;52.602;13.434;2024-03-06T01:25:30;101450.22;;;-2.15;100.00
80509;BME280;69838;52.602;13.434;2024-03-06T01:26:15;101446.59;;;-2.22;100.00
80509;BME280;69838;52.602;13.434;2024-03-06T01:27:02;101446.53;;;-2.25;100.00
80509;BME280;69838;52.602;13.434;2024-03-06T01:27:48;101444.72;;;-2.29;100.00
80509;BME280;69838;52.602;13.434;2024-03-06T01:28:33;101452.59;;;-2.32;100.00
80509;BME280;69838;52.602;13.434;2024-03-06T01:29:19;101460.53;;;-2.32;100.00
80509;BME280;69838;52.602;13.434;2024-03-06T01:30:06;101455.25;;;-2.31;100.00
80509;BME280;69838;52.602;13.434;2024-03-06T01:30:52;101451.78;;;-2.29;100.00
80509;BME280;69838;52.602;13.434;2024-03-06T01:31:39;101452.69;;;-2.27;100.00
80509;BME280;69838;52.602;13.434;2024-03-06T01:32:25;101456.25;;;-2.24;100.00
80509;BME280;69838;52.602;13.434;2024-03-06T01:33:10;101456.16;;;-2.30;100.00
80509;BME280;69838;52.602;13.434;2024-03-06T01:33:57;101458.75;;;-2.32;100.00
80509;BME280;69838;52.602;13.434;2024-03-06T01:34:42;101457.88;;;-2.32;100.00
80509;BME280;69838;52.602;13.434;2024-03-06T01:35:28;101454.53;;;-2.22;100.00
80509;BME280;69838;52.602;13.434;2024-03-06T01:36:14;101464.13;;;-2.27;100.00
80509;BME280;69838;52.602;13.434;2024-03-06T01:37:00;101457.03;;;-2.31;100.00
80509;BME280;69838;52.602;13.434;2024-03-06T01:37:45;101457.88;;;-2.32;100.00
80509;BME280;69838;52.602;13.434;2024-03-06T01:38:31;101449.88;;;-2.35;100.00
80509;BME280;69838;52.602;13.434;2024-03-06T01:39:17;101456.13;;;-2.32;100.00
80509;BME280;69838;52.602;13.434;2024-03-06T01:40:04;101459.53;;;-2.40;100.00
80509;BME280;69838;52.602;13.434;2024-03-06T01:40:50;101461.28;;;-2.41;100.00
80509;BME280;69838;52.602;13.434;2024-03-06T01:41:35;101456.75;;;-2.48;100.00
80509;BME280;69838;52.602;13.434;2024-03-06T01:42:21;101465.50;;;-2.52;100.00
80509;BME280;69838;52.602;13.434;2024-03-06T01:43:18;101463.06;;;-2.40;100.00
80509;BME280;69838;52.602;13.434;2024-03-06T01:44:04;101463.09;;;-2.38;100.00
80509;BME280;69838;52.602;13.434;2024-03-06T01:44:49;101462.97;;;-2.44;100.00
80509;BME280;69838;52.602;13.434;2024-03-06T01:45:36;101461.22;;;-2.45;100.00
80509;BME280;69838;52.602;13.434;2024-03-06T01:46:23;101466.44;;;-2.48;100.00
80509;BME280;69838;52.602;13.434;2024-03-06T01:47:09;101463.72;;;-2.55;100.00
80509;BME280;69838;52.602;13.434;2024-03-06T01:47:56;101466.53;;;-2.42;100.00
80509;BME280;69838;52.602;13.434;2024-03-06T01:48:41;101462.16;;;-2.42;100.00
80509;BME280;69838;52.602;13.434;2024-03-06T01:49:28;101464.75;;;-2.43;100.00
80509;BME280;69838;52.602;13.434;2024-03-06T01:50:13;101464.75;;;-2.45;100.00
80509;BME280;69838;52.602;13.434;2024-03-06T01:51:01;101462.81;;;-2.54;100.00
80509;BME280;69838;52.602;13.434;2024-03-06T01:51:53;101465.56;;;-2.49;100.00
80509;BME280;69838;52.602;13.434;2024-03-06T01:52:39;101468.06;;;-2.57;100.00
80509;BME280;69838;52.602;13.434;2024-03-06T01:53:27;101463.75;;;-2.52;100.00
80509;BME280;69838;52.602;13.434;2024-03-06T01:54:15;101467.22;;;-2.56;100.00
80509;BME280;69838;52.602;13.434;2024-03-06T01:55:01;101472.50;;;-2.56;100.00
80509;BME280;69838;52.602;13.434;2024-03-06T01:55:47;101466.22;;;-2.61;100.00
80509;BME280;69838;52.602;13.434;2024-03-06T01:56:35;101467.97;;;-2.63;100.00
80509;BME280;69838;52.602;13.434;2024-03-06T01:57:21;101471.44;;;-2.67;100.00
80509;BME280;69838;52.602;13.434;2024-03-06T01:58:06;101467.81;;;-2.72;100.00
80509;BME280;69838;52.602;13.434;2024-03-06T01:58:54;101466.91;;;-2.74;100.00
80509;BME280;69838;52.602;13.434;2024-03-06T01:59:39;101472.13;;;-2.77;100.00
80509;BME280;69838;52.602;13.434;2024-03-06T02:00:26;101475.63;;;-2.80;100.00
80509;BME280;69838;52.602;13.434;2024-03-06T02:01:13;101476.47;;;-2.81;100.00
80509;BME280;69838;52.602;13.434;2024-03-06T02:02:00;101471.16;;;-2.82;100.00
80509;BME280;69838;52.602;13.434;2024-03-06T02:02:46;101474.88;;;-2.73;100.00
80509;BME280;69838;52.602;13.434;2024-03-06T02:03:33;101481.00;;;-2.74;100.00
80509;BME280;69838;52.602;13.434;2024-03-06T02:04:18;101471.22;;;-2.79;100.00
80509;BME280;69838;52.602;13.434;2024-03-06T02:05:04;101479.13;;;-2.79;100.00
80509;BME280;69838;52.602;13.434;2024-03-06T02:05:52;101473.78;;;-2.82;100.00
80509;BME280;69838;52.602;13.434;2024-03-06T02:06:38;101472.81;;;-2.88;100.00
80509;BME280;69838;52.602;13.434;2024-03-06T02:07:24;101469.22;;;-2.91;100.00
80509;BME280;69838;52.602;13.434;2024-03-06T02:08:10;101464.75;;;-2.95;100.00
80509;BME280;69838;52.602;13.434;2024-03-06T02:08:56;101468.31;;;-2.93;100.00
80509;BME280;69838;52.602;13.434;2024-03-06T02:09:41;101463.25;;;-2.81;100.00
80509;BME280;69838;52.602;13.434;2024-03-06T02:10:30;101467.69;;;-2.78;100.00
80509;BME280;69838;52.602;13.434;2024-03-06T02:11:15;101472.25;;;-2.70;100.00
80509;BME280;69838;52.602;13.434;2024-03-06T02:12:02;101474.81;;;-2.74;100.00
80509;BME280;69838;52.602;13.434;2024-03-06T02:12:48;101472.97;;;-2.78;100.00
80509;BME280;69838;52.602;13.434;2024-03-06T02:13:34;101465.81;;;-2.87;100.00
80509;BME280;69838;52.602;13.434;2024-03-06T02:14:20;101469.41;;;-2.80;100.00
80509;BME280;69838;52.602;13.434;2024-03-06T02:15:06;101471.22;;;-2.79;100.00
80509;BME280;69838;52.602;13.434;2024-03-06T02:15:53;101476.34;;;-2.89;100.00
80509;BME280;69838;52.602;13.434;2024-03-06T02:16:40;101473.72;;;-2.87;100.00
80509;BME280;69838;52.602;13.434;2024-03-06T02:17:27;101471.06;;;-2.89;100.00
80509;BME280;69838;52.602;13.434;2024-03-06T02:18:14;101471.22;;;-2.79;100.00
80509;BME280;69838;52.602;13.434;2024-03-06T02:19:00;101473.81;;;-2.81;100.00
80509;BME280;69838;52.602;13.434;2024-03-06T02:19:45;101473.78;;;-2.82;100.00
80509;BME280;69838;52.602;13.434;2024-03-06T02:20:33;101473.72;;;-2.87;100.00
80509;BME280;69838;52.602;13.434;2024-03-06T02:21:19;101477.13;;;-2.93;100.00
80509;BME280;69838;52.602;13.434;2024-03-06T02:22:06;101472.66;;;-2.97;100.00
80509;BME280;69838;52.602;13.434;2024-03-06T02:22:51;101470.81;;;-3.01;100.00
80509;BME280;69838;52.602;13.434;2024-03-06T02:23:37;101472.56;;;-3.03;100.00
80509;BME280;69838;52.602;13.434;2024-03-06T02:24:23;101473.34;;;-3.07;100.00
80509;BME280;69838;52.602;13.434;2024-03-06T02:25:09;101477.69;;;-3.09;100.00
80509;BME280;69838;52.602;13.434;2024-03-06T02:25:55;101472.38;;;-3.12;100.00
80509;BME280;69838;52.602;13.434;2024-03-06T02:26:41;101469.75;;;-3.11;100.00
80509;BME280;69838;52.602;13.434;2024-03-06T02:27:27;101464.38;;;-3.15;100.00
80509;BME280;69838;52.602;13.434;2024-03-06T02:28:12;101470.69;;;-3.07;100.00
80509;BME280;69838;52.602;13.434;2024-03-06T02:28:58;101479.56;;;-3.03;100.00
80509;BME280;69838;52.602;13.434;2024-03-06T02:29:44;101477.78;;;-3.06;100.00
80509;BME280;69838;52.602;13.434;2024-03-06T02:30:29;101467.03;;;-3.15;100.00
80509;BME280;69838;52.602;13.434;2024-03-06T02:31:21;101473.25;;;-3.12;100.00
80509;BME280;69838;52.602;13.434;2024-03-06T02:32:08;101484.88;;;-3.02;100.00
80509;BME280;69838;52.602;13.434;2024-03-06T02:32:53;101479.66;;;-2.99;100.00
80509;BME280;69838;52.602;13.434;2024-03-06T02:33:40;101486.69;;;-3.01;100.00
80509;BME280;69838;52.602;13.434;2024-03-06T02:34:25;101481.31;;;-3.04;100.00
80509;BME280;69838;52.602;13.434;2024-03-06T02:35:11;101479.50;;;-3.08;100.00
80509;BME280;69838;52.602;13.434;2024-03-06T02:35:58;101486.44;;;-3.13;100.00
80509;BME280;69838;52.602;13.434;2024-03-06T02:36:43;101486.38;;;-3.16;100.00
80509;BME280;69838;52.602;13.434;2024-03-06T02:37:30;101488.25;;;-3.09;100.00
80509;BME280;69838;52.602;13.434;2024-03-06T02:38:15;101491.66;;;-3.16;100.00
80509;BME280;69838;52.602;13.434;2024-03-06T02:39:01;101482.97;;;-3.09;100.00
80509;BME280;69838;52.602;13.434;2024-03-06T02:39:49;101489.00;;;-3.16;100.00
80509;BME280;69838;52.602;13.434;2024-03-06T02:40:35;101489.88;;;-3.17;100.00
80509;BME280;69838;52.602;13.434;2024-03-06T02:41:20;101489.81;;;-3.20;100.00
80509;BME280;69838;52.602;13.434;2024-03-06T02:42:07;101491.59;;;-3.21;100.00
80509;BME280;69838;52.602;13.434;2024-03-06T02:42:52;101495.16;;;-3.17;100.00
80509;BME280;69838;52.602;13.434;2024-03-06T02:43:37;101487.22;;;-3.19;100.00
80509;BME280;69838;52.602;13.434;2024-03-06T02:44:24;101492.47;;;-3.20;100.00
80509;BME280;69838;52.602;13.434;2024-03-06T02:45:10;101490.78;;;-3.17;100.00
80509;BME280;69838;52.602;13.434;2024-03-06T02:45:55;101490.88;;;-3.11;100.00
80509;BME280;69838;52.602;13.434;2024-03-06T02:46:46;101485.44;;;-3.18;100.00
80509;BME280;69838;52.602;13.434;2024-03-06T02:47:32;101488.97;;;-3.19;100.00
80509;BME280;69838;52.602;13.434;2024-03-06T02:48:17;101492.44;;;-3.22;100.00
80509;BME280;69838;52.602;13.434;2024-03-06T02:49:04;101498.59;;;-3.21;100.00
80509;BME280;69838;52.602;13.434;2024-03-06T02:49:51;101489.75;;;-3.23;100.00
80509;BME280;69838;52.602;13.434;2024-03-06T02:50:36;101489.75;;;-3.23;100.00
80509;BME280;69838;52.602;13.434;2024-03-06T02:51:24;101484.50;;;-3.22;100.00
80509;BME280;69838;52.602;13.434;2024-03-06T02:52:09;101488.03;;;-3.21;100.00
80509;BME280;69838;52.602;13.434;2024-03-06T02:52:55;101499.53;;;-3.19;100.00
80509;BME280;69838;52.602;13.434;2024-03-06T02:53:41;101495.88;;;-3.26;100.00
80509;BME280;69838;52.602;13.434;2024-03-06T02:54:27;101488.16;;;-3.15;100.00
80509;BME280;69838;52.602;13.434;2024-03-06T02:55:12;101488.03;;;-3.21;100.00
80509;BME280;69838;52.602;13.434;2024-03-06T02:55:59;101487.06;;;-3.27;100.00
80509;BME280;69838;52.602;13.434;2024-03-06T02:56:45;101488.75;;;-3.29;100.00
80509;BME280;69838;52.602;13.434;2024-03-06T02:57:31;101483.56;;;-3.26;100.00
80509;BME280;69838;52.602;13.434;2024-03-06T02:58:17;101492.44;;;-3.22;100.00
80509;BME280;69838;52.602;13.434;2024-03-06T02:59:02;101492.34;;;-3.25;100.00
80509;BME280;69838;52.602;13.434;2024-03-06T02:59:49;101489.66;;;-3.30;100.00
80509;BME280;69838;52.602;13.434;2024-03-06T03:00:35;101492.25;;;-3.31;100.00
80509;BME280;69838;52.602;13.434;2024-03-06T03:01:20;101493.09;;;-3.34;100.00
80509;BME280;69838;52.602;13.434;2024-03-06T03:02:06;101495.72;;;-3.34;100.00
80509;BME280;69838;52.602;13.434;2024-03-06T03:02:52;101493.09;;;-3.34;100.00
80509;BME280;69838;52.602;13.434;2024-03-06T03:03:40;101493.03;;;-3.37;100.00
80509;BME280;69838;52.602;13.434;2024-03-06T03:04:25;101499.16;;;-3.38;100.00
80509;BME280;69838;52.602;13.434;2024-03-06T03:05:11;101496.47;;;-3.39;100.00
80509;BME280;69838;52.602;13.434;2024-03-06T03:05:57;101497.34;;;-3.40;100.00
80509;BME280;69838;52.602;13.434;2024-03-06T03:06:44;101492.94;;;-3.40;100.00
80509;BME280;69838;52.602;13.434;2024-03-06T03:07:30;101500.03;;;-3.39;100.00
80509;BME280;69838;52.602;13.434;2024-03-06T03:08:15;101500.94;;;-3.37;100.00
80509;BME280;69838;52.602;13.434;2024-03-06T03:09:01;101492.88;;;-3.43;100.00
80509;BME280;69838;52.602;13.434;2024-03-06T03:09:48;101495.50;;;-3.44;100.00
80509;BME280;69838;52.602;13.434;2024-03-06T03:10:34;101497.41;;;-3.37;100.00
80509;BME280;69838;52.602;13.434;2024-03-06T03:11:19;101499.16;;;-3.38;100.00
80509;BME280;69838;52.602;13.434;2024-03-06T03:12:06;101498.31;;;-3.37;100.00
80509;BME280;69838;52.602;13.434;2024-03-06T03:12:51;101491.03;;;-3.47;100.00
80509;BME280;69838;52.602;13.434;2024-03-06T03:13:38;101498.13;;;-3.46;100.00
80509;BME280;69838;52.602;13.434;2024-03-06T03:14:24;101503.41;;;-3.46;100.00
80509;BME280;69838;52.602;13.434;2024-03-06T03:15:10;101501.63;;;-3.46;100.00
80509;BME280;69838;52.602;13.434;2024-03-06T03:15:56;101503.22;;;-3.54;100.00
80509;BME280;69838;52.602;13.434;2024-03-06T03:16:42;101507.72;;;-3.50;100.00
80509;BME280;69838;52.602;13.434;2024-03-06T03:17:28;101507.81;;;-3.45;100.00
80509;BME280;69838;52.602;13.434;2024-03-06T03:18:14;101498.22;;;-3.40;100.00
80509;BME280;69838;52.602;13.434;2024-03-06T03:19:00;101513.19;;;-3.40;100.00
80509;BME280;69838;52.602;13.434;2024-03-06T03:19:45;101513.97;;;-3.46;100.00
80509;BME280;69838;52.602;13.434;2024-03-06T03:20:31;101510.41;;;-3.48;100.00
80509;BME280;69838;52.602;13.434;2024-03-06T03:21:17;101505.88;;;-3.52;100.00
80509;BME280;69838;52.602;13.434;2024-03-06T03:22:04;101512.00;;;-3.55;100.00
80509;BME280;69838;52.602;13.434;2024-03-06T03:22:50;101519.00;;;-3.57;100.00
80509;BME280;69838;52.602;13.434;2024-03-06T03:23:36;101506.69;;;-3.56;100.00
80509;BME280;69838;52.602;13.434;2024-03-06T03:24:21;101513.09;;;-3.45;100.00
80509;BME280;69838;52.602;13.434;2024-03-06T03:25:09;101514.75;;;-3.49;100.00
80509;BME280;69838;52.602;13.434;2024-03-06T03:25:55;101517.38;;;-3.50;100.00
80509;BME280;69838;52.602;13.434;2024-03-06T03:26:40;101517.31;;;-3.53;100.00
80509;BME280;69838;52.602;13.434;2024-03-06T03:27:27;101511.09;;;-3.55;100.00
80509;BME280;69838;52.602;13.434;2024-03-06T03:28:13;101521.59;;;-3.58;100.00
80509;BME280;69838;52.602;13.434;2024-03-06T03:28:59;101519.75;;;-3.62;100.00
80509;BME280;69838;52.602;13.434;2024-03-06T03:29:45;101515.34;;;-3.63;100.00
80509;BME280;69838;52.602;13.434;2024-03-06T03:30:30;101518.91;;;-3.61;100.00
80509;BME280;69838;52.602;13.434;2024-03-06T03:31:17;101525.25;;;-3.53;100.00
80509;BME280;69838;52.602;13.434;2024-03-06T03:32:03;101525.13;;;-3.58;100.00
80509;BME280;69838;52.602;13.434;2024-03-06T03:32:49;101529.44;;;-3.61;100.00
80509;BME280;69838;52.602;13.434;2024-03-06T03:33:36;101528.50;;;-3.65;100.00
80509;BME280;69838;52.602;13.434;2024-03-06T03:34:23;101536.53;;;-3.60;100.00
80509;BME280;69838;52.602;13.434;2024-03-06T03:35:09;101532.88;;;-3.66;100.00
80509;BME280;69838;52.602;13.434;2024-03-06T03:35:55;101538.16;;;-3.66;100.00
80509;BME280;69838;52.602;13.434;2024-03-06T03:36:41;101538.09;;;-3.69;100.00
80509;BME280;69838;52.602;13.434;2024-03-06T03:37:28;101528.41;;;-3.68;100.00
80509;BME280;69838;52.602;13.434;2024-03-06T03:38:14;101522.38;;;-3.62;100.00
80509;BME280;69838;52.602;13.434;2024-03-06T03:39:00;101526.81;;;-3.61;100.00
80509;BME280;69838;52.602;13.434;2024-03-06T03:39:45;101520.53;;;-3.67;100.00
80509;BME280;69838;52.602;13.434;2024-03-06T03:40:32;101527.63;;;-3.66;100.00
80509;BME280;69838;52.602;13.434;2024-03-06T03:41:18;101529.34;;;-3.68;100.00
80509;BME280;69838;52.602;13.434;2024-03-06T03:42:03;101523.97;;;-3.71;100.00
80509;BME280;69838;52.602;13.434;2024-03-06T03:42:51;101530.97;;;-3.73;100.00
80509;BME280;69838;52.602;13.434;2024-03-06T03:43:38;101526.53;;;-3.74;100.00
80509;BME280;69838;52.602;13.434;2024-03-06T03:44:24;101531.00;;;-3.70;100.00
80509;BME280;69838;52.602;13.434;2024-03-06T03:45:10;101531.84;;;-3.72;100.00
80509;BME280;69838;52.602;13.434;2024-03-06T03:45:56;101535.34;;;-3.75;100.00
80509;BME280;69838;52.602;13.434;2024-03-06T03:46:41;101529.19;;;-3.74;100.00
80509;BME280;69838;52.602;13.434;2024-03-06T03:47:28;101530.00;;;-3.76;100.00
80509;BME280;69838;52.602;13.434;2024-03-06T03:48:13;101526.47;;;-3.77;100.00
80509;BME280;69838;52.602;13.434;2024-03-06T03:49:01;101530.97;;;-3.73;100.00
80509;BME280;69838;52.602;13.434;2024-03-06T03:49:47;101534.53;;;-3.71;100.00
80509;BME280;69838;52.602;13.434;2024-03-06T03:50:33;101530.06;;;-3.75;100.00
80509;BME280;69838;52.602;13.434;2024-03-06T03:51:18;101534.53;;;-3.71;100.00
80509;BME280;69838;52.602;13.434;2024-03-06T03:52:05;101539.66;;;-3.77;100.00
80509;BME280;69838;52.602;13.434;2024-03-06T03:52:52;101532.53;;;-3.81;100.00
80509;BME280;69838;52.602;13.434;2024-03-06T03:53:38;101533.38;;;-3.84;100.00
80509;BME280;69838;52.602;13.434;2024-03-06T03:54:24;101537.00;;;-3.77;100.00
80509;BME280;69838;52.602;13.434;2024-03-06T03:55:10;101535.16;;;-3.81;100.00